createdAt,value
2018-10-18T00:01:40.374Z,12.62
2018-10-18T00:04:08.457Z,12.66
2018-10-18T00:06:36.546Z,12.58
2018-10-18T00:09:07.804Z,12.46
2018-10-18T00:11:35.964Z,12.39
2018-10-18T00:14:04.228Z,12.33
2018-10-18T00:16:32.281Z,12.28
2018-10-18T00:19:00.385Z,12.34
2018-10-18T00:21:28.449Z,12.33
2018-10-18T00:23:56.729Z,12.13
2018-10-18T00:26:24.800Z,12.04
2018-10-18T00:28:52.840Z,12.00
2018-10-18T00:31:20.914Z,11.90
2018-10-18T00:33:49.060Z,11.80
2018-10-18T00:36:17.205Z,11.66
2018-10-18T00:38:45.358Z,11.52
2018-10-18T00:41:13.517Z,11.60
2018-10-18T00:43:41.646Z,11.53
2018-10-18T00:46:09.775Z,11.46
2018-10-18T00:48:37.882Z,11.39
2018-10-18T00:51:06.263Z,11.36
2018-10-18T00:53:34.480Z,11.36
2018-10-18T00:56:02.619Z,11.30
2018-10-18T00:58:30.687Z,11.20
2018-10-18T01:00:58.797Z,11.08
2018-10-18T01:03:26.980Z,11.02
2018-10-18T01:05:55.089Z,11.01
2018-10-18T01:08:23.134Z,11.00
2018-10-18T01:10:51.242Z,10.92
2018-10-18T01:13:19.510Z,10.82
2018-10-18T01:15:47.634Z,10.81
2018-10-18T01:18:15.903Z,10.77
2018-10-18T01:20:43.971Z,10.74
2018-10-18T01:23:12.208Z,10.63
2018-10-18T01:25:40.277Z,10.57
2018-10-18T01:28:08.356Z,10.52
2018-10-18T01:30:36.450Z,10.44
2018-10-18T01:33:04.934Z,10.39
2018-10-18T01:35:33.073Z,10.30
2018-10-18T01:38:01.244Z,10.26
2018-10-18T01:40:29.348Z,10.24
2018-10-18T01:42:57.536Z,10.24
2018-10-18T01:45:25.844Z,10.16
2018-10-18T01:47:54.010Z,10.15
2018-10-18T01:50:22.072Z,10.19
2018-10-18T01:52:50.242Z,10.14
2018-10-18T01:55:18.585Z,10.09
2018-10-18T01:57:46.743Z,10.02
2018-10-18T02:00:14.880Z,9.97
2018-10-18T02:02:42.945Z,9.99
2018-10-18T02:05:11.075Z,10.01
2018-10-18T02:07:39.170Z,9.92
2018-10-18T02:10:07.309Z,9.91
2018-10-18T02:12:35.497Z,9.95
2018-10-18T02:15:03.780Z,9.92
2018-10-18T02:17:31.940Z,9.86
2018-10-18T02:20:00.077Z,9.79
2018-10-18T02:22:28.233Z,9.75
2018-10-18T02:24:56.509Z,9.72
2018-10-18T02:27:24.646Z,9.70
2018-10-18T02:29:52.913Z,9.65
2018-10-18T02:32:21.143Z,9.62
2018-10-18T02:34:49.317Z,9.56
2018-10-18T02:37:17.477Z,9.54
2018-10-18T02:39:45.649Z,9.54
2018-10-18T02:42:13.819Z,9.56
2018-10-18T02:44:42.033Z,9.54
2018-10-18T02:47:10.165Z,9.50
2018-10-18T02:49:38.294Z,9.54
2018-10-18T02:52:06.440Z,9.48
2018-10-18T02:54:34.630Z,9.60
2018-10-18T02:57:02.796Z,9.58
2018-10-18T02:59:30.912Z,9.49
2018-10-18T03:01:58.960Z,9.43
2018-10-18T03:04:27.048Z,9.39
2018-10-18T03:06:55.151Z,9.33
2018-10-18T03:09:23.329Z,9.30
2018-10-18T03:11:51.506Z,9.26
2018-10-18T03:14:19.640Z,9.22
2018-10-18T03:16:47.808Z,9.18
2018-10-18T03:19:16.064Z,9.19
2018-10-18T03:21:44.315Z,9.21
2018-10-18T03:24:13.636Z,9.19
2018-10-18T03:26:41.745Z,9.12
2018-10-18T03:29:09.923Z,9.07
2018-10-18T03:31:38.065Z,9.05
2018-10-18T03:34:06.698Z,9.02
2018-10-18T03:36:34.936Z,9.01
2018-10-18T03:39:04.752Z,9.01
2018-10-18T03:41:32.871Z,9.06
2018-10-18T03:44:01.256Z,9.10
2018-10-18T03:46:29.417Z,9.14
2018-10-18T03:48:57.565Z,9.32
2018-10-18T03:51:25.691Z,9.37
2018-10-18T03:53:53.980Z,8.95
2018-10-18T03:56:22.389Z,8.75
2018-10-18T03:58:50.554Z,8.62
2018-10-18T04:01:18.701Z,8.56
2018-10-18T04:03:46.968Z,8.46
2018-10-18T04:06:16.037Z,8.49
2018-10-18T04:08:44.265Z,8.54
2018-10-18T04:11:12.426Z,8.58
2018-10-18T04:13:40.712Z,8.60
2018-10-18T04:16:08.834Z,8.67
2018-10-18T04:18:36.946Z,8.75
2018-10-18T04:21:05.263Z,8.81
2018-10-18T04:23:34.278Z,8.87
2018-10-18T04:26:03.207Z,8.87
2018-10-18T04:28:32.071Z,8.91
2018-10-18T04:31:01.126Z,8.85
2018-10-18T04:33:29.389Z,8.79
2018-10-18T04:35:57.583Z,8.86
2018-10-18T04:38:25.949Z,8.87
2018-10-18T04:40:54.033Z,8.80
2018-10-18T04:43:22.374Z,8.79
2018-10-18T04:45:50.521Z,8.83
2018-10-18T04:48:18.925Z,8.71
2018-10-18T04:50:47.181Z,8.78
2018-10-18T04:53:15.249Z,8.72
2018-10-18T04:55:43.604Z,8.79
2018-10-18T04:58:11.762Z,8.57
2018-10-18T05:00:39.966Z,8.49
2018-10-18T05:03:08.449Z,8.51
2018-10-18T05:05:49.363Z,8.50
2018-10-18T05:08:17.945Z,8.54
2018-10-18T05:10:46.556Z,8.57
2018-10-18T05:13:15.431Z,8.70
2018-10-18T05:15:43.930Z,8.77
2018-10-18T05:18:12.201Z,8.89
2018-10-18T05:20:40.991Z,8.99
2018-10-18T05:23:09.702Z,9.13
2018-10-18T05:25:38.522Z,9.27
2018-10-18T05:28:07.730Z,9.38
2018-10-18T05:30:36.381Z,9.51
2018-10-18T05:33:05.191Z,9.65
2018-10-18T05:41:34.613Z,10.20
2018-10-18T06:01:58.855Z,12.11
2018-10-18T06:22:22.673Z,13.20
2018-10-18T06:39:46.222Z,14.49
2018-10-18T06:42:14.396Z,14.76
2018-10-18T06:44:42.725Z,14.97
2018-10-18T06:47:11.248Z,15.34
2018-10-18T06:49:39.306Z,15.59
2018-10-18T06:52:07.604Z,15.59
2018-10-18T06:54:35.891Z,15.68
2018-10-18T06:57:05.128Z,15.83
2018-10-18T06:59:33.531Z,15.86
2018-10-18T07:02:02.827Z,15.97
2018-10-18T07:04:31.332Z,15.93
2018-10-18T07:06:59.628Z,16.07
2018-10-18T07:09:28.053Z,16.13
2018-10-18T07:11:56.541Z,16.20
2018-10-18T07:14:25.360Z,16.44
2018-10-18T07:16:54.441Z,16.40
2018-10-18T07:19:22.926Z,16.61
2018-10-18T07:21:51.322Z,16.64
2018-10-18T07:24:19.892Z,16.75
2018-10-18T07:26:48.792Z,16.77
2018-10-18T07:29:17.369Z,16.66
2018-10-18T07:31:45.878Z,16.95
2018-10-18T07:34:15.407Z,16.97
2018-10-18T07:36:43.955Z,17.31
2018-10-18T07:39:14.386Z,17.33
2018-10-18T07:41:43.907Z,17.56
2018-10-18T07:44:12.630Z,17.93
2018-10-18T07:46:41.131Z,17.62
2018-10-18T07:49:09.538Z,18.09
2018-10-18T07:51:38.039Z,18.22
2018-10-18T07:54:06.633Z,18.35
2018-10-18T07:56:35.061Z,18.28
2018-10-18T07:59:03.831Z,18.34
2018-10-18T08:01:32.495Z,18.40
2018-10-18T08:04:01.782Z,18.38
2018-10-18T08:06:30.988Z,18.23
2018-10-18T08:08:59.513Z,18.50
2018-10-18T08:11:28.304Z,18.65
2018-10-18T08:13:56.738Z,18.72
2018-10-18T08:16:25.170Z,18.88
2018-10-18T08:18:54.631Z,18.88
2018-10-18T08:21:23.648Z,18.71
2018-10-18T08:23:52.317Z,18.73
2018-10-18T08:26:20.732Z,18.99
2018-10-18T08:28:49.305Z,19.41
2018-10-18T08:31:18.143Z,19.42
2018-10-18T08:33:46.631Z,19.53
2018-10-18T08:36:15.105Z,19.29
2018-10-18T08:38:43.416Z,19.20
2018-10-18T08:41:12.170Z,19.56
2018-10-18T08:43:40.809Z,19.41
2018-10-18T08:46:09.494Z,19.74
2018-10-18T08:48:38.778Z,19.74
2018-10-18T08:51:07.184Z,19.96
2018-10-18T08:53:35.615Z,19.82
2018-10-18T08:56:04.670Z,19.83
2018-10-18T08:58:33.580Z,20.23
2018-10-18T09:01:02.850Z,19.93
2018-10-18T09:03:31.582Z,19.70
2018-10-18T09:06:00.661Z,20.28
2018-10-18T09:08:29.088Z,20.05
2018-10-18T09:10:57.433Z,20.00
2018-10-18T09:13:26.638Z,20.06
2018-10-18T09:15:55.525Z,20.32
2018-10-18T09:18:23.963Z,20.59
2018-10-18T09:20:52.387Z,20.60
2018-10-18T09:23:20.955Z,21.12
2018-10-18T09:25:49.474Z,21.14
2018-10-18T09:28:18.186Z,21.04
2018-10-18T09:30:46.692Z,21.13
2018-10-18T09:33:15.498Z,21.22
2018-10-18T09:35:44.222Z,20.99
2018-10-18T09:38:12.653Z,20.83
2018-10-18T09:40:41.134Z,20.77
2018-10-18T09:43:09.679Z,21.05
2018-10-18T09:45:38.746Z,20.99
2018-10-18T09:48:07.472Z,21.23
2018-10-18T09:50:35.900Z,20.83
2018-10-18T09:53:04.358Z,20.53
2018-10-18T09:55:33.193Z,20.57
2018-10-18T09:58:01.541Z,20.53
2018-10-18T10:00:35.564Z,20.93
2018-10-18T10:03:10.621Z,21.09
2018-10-18T10:05:39.114Z,21.60
2018-10-18T10:08:07.694Z,21.70
2018-10-18T10:10:36.551Z,21.63
2018-10-18T10:13:05.318Z,22.00
2018-10-18T10:15:33.732Z,22.18
2018-10-18T10:18:02.541Z,22.21
2018-10-18T10:20:30.917Z,21.97
2018-10-18T10:22:59.560Z,21.78
2018-10-18T10:25:28.206Z,22.14
2018-10-18T10:27:57.303Z,22.06
2018-10-18T10:30:26.863Z,22.25
2018-10-18T10:32:55.256Z,22.61
2018-10-18T10:35:23.523Z,22.32
2018-10-18T10:37:51.765Z,21.70
2018-10-18T10:40:20.012Z,21.66
2018-10-18T10:42:48.195Z,22.14
2018-10-18T10:45:16.667Z,22.48
2018-10-18T10:47:44.873Z,22.64
2018-10-18T10:50:13.144Z,22.45
2018-10-18T10:52:41.391Z,22.39
2018-10-18T10:55:11.317Z,22.31
2018-10-18T10:57:39.779Z,22.59
2018-10-18T11:00:08.253Z,22.65
2018-10-18T11:02:36.591Z,22.55
2018-10-18T11:05:05.624Z,22.66
2018-10-18T11:07:33.962Z,22.54
2018-10-18T11:10:03.225Z,22.48
2018-10-18T11:12:31.717Z,22.45
2018-10-18T11:15:00.131Z,22.84
2018-10-18T11:17:28.330Z,22.54
2018-10-18T11:19:56.735Z,21.96
2018-10-18T11:22:24.936Z,22.00
2018-10-18T11:24:53.221Z,22.01
2018-10-18T11:27:21.542Z,21.72
2018-10-18T11:29:49.784Z,21.79
2018-10-18T11:32:17.994Z,22.06
2018-10-18T11:34:46.412Z,22.20
2018-10-18T11:37:14.603Z,22.19
2018-10-18T11:39:42.893Z,22.05
2018-10-18T11:42:11.295Z,22.16
2018-10-18T11:44:40.634Z,22.18
2018-10-18T11:47:10.760Z,22.35
2018-10-18T11:49:39.526Z,22.23
2018-10-18T11:52:07.880Z,22.17
2018-10-18T11:54:36.042Z,22.27
2018-10-18T11:57:04.431Z,22.35
2018-10-18T11:59:32.622Z,22.31
2018-10-18T12:02:00.957Z,22.55
2018-10-18T12:04:29.469Z,22.43
2018-10-18T12:06:57.719Z,22.11
2018-10-18T12:09:26.386Z,22.12
2018-10-18T12:11:54.818Z,22.51
2018-10-18T12:14:23.197Z,22.26
2018-10-18T12:16:51.834Z,22.20
2018-10-18T12:19:21.396Z,22.39
2018-10-18T12:21:49.966Z,22.41
2018-10-18T12:24:18.343Z,22.55
2018-10-18T12:26:46.768Z,22.49
2018-10-18T12:29:15.294Z,22.58
2018-10-18T12:31:43.615Z,22.40
2018-10-18T12:34:11.922Z,22.36
2018-10-18T12:36:40.299Z,22.33
2018-10-18T12:39:09.248Z,22.23
2018-10-18T12:41:37.777Z,22.31
2018-10-18T12:44:05.989Z,22.19
2018-10-18T12:46:34.336Z,22.09
2018-10-18T12:49:02.729Z,22.00
2018-10-18T12:51:31.171Z,21.92
2018-10-18T12:53:59.405Z,21.94
2018-10-18T12:56:27.678Z,21.98
2018-10-18T12:58:55.960Z,22.02
2018-10-18T13:01:24.462Z,22.09
2018-10-18T13:03:53.062Z,22.11
2018-10-18T13:06:21.567Z,22.00
2018-10-18T13:08:49.780Z,22.00
2018-10-18T13:11:18.013Z,22.11
2018-10-18T13:13:46.358Z,22.17
2018-10-18T13:16:14.722Z,22.22
2018-10-18T13:18:43.159Z,22.36
2018-10-18T13:21:11.748Z,22.44
2018-10-18T13:23:40.164Z,22.48
2018-10-18T13:26:08.711Z,22.55
2018-10-18T13:28:37.163Z,22.55
2018-10-18T13:31:05.637Z,22.28
2018-10-18T13:33:33.887Z,22.12
2018-10-18T13:36:02.223Z,22.12
2018-10-18T13:38:30.467Z,22.07
2018-10-18T13:40:58.872Z,22.12
2018-10-18T13:43:27.388Z,22.06
2018-10-18T13:45:56.186Z,22.01
2018-10-18T13:48:24.667Z,22.03
2018-10-18T13:50:53.308Z,22.18
2018-10-18T13:53:21.484Z,22.02
2018-10-18T13:55:50.113Z,22.00
2018-10-18T13:58:18.705Z,21.87
2018-10-18T14:00:47.093Z,21.67
2018-10-18T14:03:15.411Z,21.61
2018-10-18T14:05:43.849Z,21.79
2018-10-18T14:08:12.304Z,21.47
2018-10-18T14:10:40.636Z,21.42
2018-10-18T14:13:09.083Z,21.34
2018-10-18T14:15:37.491Z,21.25
2018-10-18T14:18:05.719Z,21.04
2018-10-18T14:20:33.946Z,20.86
2018-10-18T14:23:02.667Z,20.82
2018-10-18T14:25:31.102Z,20.67
2018-10-18T14:27:59.535Z,20.57
2018-10-18T14:30:27.951Z,20.44
2018-10-18T14:32:56.104Z,20.38
2018-10-18T14:35:24.696Z,20.29
2018-10-18T14:37:53.443Z,20.20
2018-10-18T14:40:21.968Z,20.17
2018-10-18T14:42:50.461Z,20.05
2018-10-18T14:45:18.910Z,19.97
2018-10-18T14:47:47.376Z,19.82
2018-10-18T14:50:15.806Z,19.68
2018-10-18T14:52:44.426Z,19.48
2018-10-18T14:55:13.085Z,19.32
2018-10-18T14:57:41.638Z,19.17
2018-10-18T15:00:11.683Z,19.04
2018-10-18T15:02:40.108Z,18.91
2018-10-18T15:05:09.875Z,18.68
2018-10-18T15:07:39.227Z,18.54
2018-10-18T15:10:09.594Z,18.41
2018-10-18T15:12:38.125Z,18.21
2018-10-18T15:15:08.571Z,18.03
2018-10-18T15:17:37.638Z,17.92
2018-10-18T15:20:07.275Z,17.76
2018-10-18T15:22:35.923Z,17.60
2018-10-18T15:25:06.381Z,17.41
2018-10-18T15:27:35.708Z,17.22
2018-10-18T15:30:05.656Z,17.08
2018-10-18T15:32:34.445Z,16.76
2018-10-18T15:35:03.262Z,16.56
2018-10-18T15:37:31.892Z,16.39
2018-10-18T15:40:00.756Z,16.25
2018-10-18T15:42:29.462Z,16.15
2018-10-18T15:44:58.205Z,16.09
2018-10-18T15:47:26.867Z,15.86
2018-10-18T15:49:55.762Z,15.73
2018-10-18T15:52:24.475Z,15.61
2018-10-18T15:54:53.040Z,15.72
2018-10-18T15:57:21.866Z,15.60
2018-10-18T15:59:50.795Z,15.43
2018-10-18T16:02:20.056Z,15.31
2018-10-18T16:04:49.014Z,15.06
2018-10-18T16:07:18.017Z,14.92
2018-10-18T16:09:46.863Z,14.92
2018-10-18T16:12:16.092Z,14.76
2018-10-18T16:14:45.523Z,14.81
2018-10-18T16:17:14.830Z,14.79
2018-10-18T16:19:43.755Z,15.00
2018-10-18T16:22:12.800Z,15.32
2018-10-18T16:24:42.335Z,15.26
2018-10-18T16:27:11.620Z,15.52
2018-10-18T16:29:40.508Z,15.39
2018-10-18T16:32:09.668Z,15.49
2018-10-18T16:34:38.649Z,15.39
2018-10-18T16:37:07.616Z,15.35
2018-10-18T16:39:37.002Z,15.36
2018-10-18T16:42:05.933Z,15.74
2018-10-18T16:44:34.897Z,16.10
2018-10-18T16:47:04.440Z,16.01
2018-10-18T16:49:33.827Z,16.04
2018-10-18T16:52:02.872Z,15.67
2018-10-18T16:54:32.093Z,15.50
2018-10-18T16:57:01.257Z,15.37
2018-10-18T16:59:30.412Z,15.64
2018-10-18T17:01:59.627Z,15.70
2018-10-18T17:04:28.929Z,15.29
2018-10-18T17:06:57.835Z,15.14
2018-10-18T17:12:01.383Z,15.33
2018-10-18T17:14:30.670Z,15.16
2018-10-18T17:17:00.506Z,15.16
2018-10-18T17:19:29.448Z,15.21
2018-10-18T17:21:58.099Z,15.46
2018-10-18T17:24:26.848Z,15.58
2018-10-18T17:26:55.779Z,15.56
2018-10-18T17:29:24.299Z,15.42
2018-10-18T17:31:52.905Z,15.38
2018-10-18T17:34:21.377Z,15.14
2018-10-18T17:36:49.877Z,15.07
2018-10-18T17:39:18.825Z,15.00
2018-10-18T17:41:47.299Z,14.79
2018-10-18T17:44:16.105Z,14.61
2018-10-18T17:46:44.604Z,14.74
2018-10-18T17:49:13.243Z,14.56
2018-10-18T17:51:42.170Z,14.39
2018-10-18T17:54:10.922Z,14.33
2018-10-18T17:56:39.536Z,14.28
2018-10-18T17:59:08.187Z,14.17
2018-10-18T18:01:36.831Z,14.12
2018-10-18T18:04:05.877Z,14.07
2018-10-18T18:06:34.603Z,14.09
2018-10-18T18:09:04.033Z,14.06
2018-10-18T18:11:32.565Z,14.09
2018-10-18T18:14:01.728Z,14.01
2018-10-18T18:16:30.693Z,13.97
2018-10-18T18:18:59.316Z,13.92
2018-10-18T18:21:27.734Z,13.91
2018-10-18T18:23:56.396Z,13.86
2018-10-18T18:26:32.545Z,13.82
2018-10-18T18:28:53.853Z,13.76
2018-10-18T18:31:22.918Z,13.72
2018-10-18T18:33:51.142Z,13.65
2018-10-18T18:36:19.494Z,13.65
2018-10-18T18:38:48.388Z,13.61
2018-10-18T18:41:16.974Z,13.59
2018-10-18T18:43:45.852Z,13.56
2018-10-18T18:46:15.160Z,13.51
2018-10-18T18:48:43.754Z,13.50
2018-10-18T18:51:12.223Z,13.48
2018-10-18T18:53:40.920Z,13.47
2018-10-18T18:56:10.305Z,13.48
2018-10-18T18:58:38.654Z,13.41
2018-10-18T19:01:07.875Z,13.37
2018-10-18T19:03:36.298Z,13.31
2018-10-18T19:06:05.899Z,13.26
2018-10-18T19:08:34.553Z,13.26
2018-10-18T19:11:03.638Z,13.19
2018-10-18T19:13:32.534Z,13.15
2018-10-18T19:16:00.975Z,13.06
2018-10-18T19:18:29.388Z,13.01
2018-10-18T19:20:57.926Z,12.91
2018-10-18T19:23:26.317Z,12.87
2018-10-18T19:25:54.974Z,12.80
2018-10-18T19:28:23.521Z,12.70
2018-10-18T19:30:52.269Z,12.64
2018-10-18T19:33:20.731Z,12.61
2018-10-18T19:35:49.163Z,12.55
2018-10-18T19:38:17.897Z,12.51
2018-10-18T19:40:46.498Z,12.46
2018-10-18T19:43:15.354Z,12.39
2018-10-18T19:45:44.585Z,12.35
2018-10-18T19:48:13.032Z,12.25
2018-10-18T19:50:41.463Z,12.23
2018-10-18T19:53:10.259Z,12.16
2018-10-18T19:55:38.841Z,12.11
2018-10-18T19:58:08.716Z,12.07
2018-10-18T20:00:45.410Z,12.00
2018-10-18T20:03:13.604Z,11.91
2018-10-18T20:05:42.147Z,11.81
2018-10-18T20:08:11.016Z,11.80
2018-10-18T20:10:39.251Z,11.79
2018-10-18T20:13:08.020Z,11.76
2018-10-18T20:15:36.413Z,11.63
2018-10-18T20:18:05.177Z,11.63
2018-10-18T20:20:33.560Z,11.55
2018-10-18T20:23:01.780Z,11.45
2018-10-18T20:25:30.052Z,11.42
2018-10-18T20:27:58.387Z,11.43
2018-10-18T20:30:26.678Z,11.45
2018-10-18T20:32:54.926Z,11.39
2018-10-18T20:35:23.284Z,11.34
2018-10-18T20:37:51.628Z,11.32
2018-10-18T20:40:19.761Z,11.22
2018-10-18T20:42:47.957Z,11.17
2018-10-18T20:45:21.714Z,11.08
2018-10-18T20:47:50.162Z,11.07
2018-10-18T20:50:18.334Z,11.06
2018-10-18T20:52:46.539Z,11.05
2018-10-18T20:55:14.649Z,11.05
2018-10-18T20:57:42.917Z,11.06
2018-10-18T21:00:11.059Z,11.01
2018-10-18T21:02:39.145Z,10.93
2018-10-18T21:05:07.561Z,10.93
2018-10-18T21:07:35.804Z,10.92
2018-10-18T21:10:04.002Z,10.93
2018-10-18T21:12:32.213Z,10.89
2018-10-18T21:15:00.560Z,10.84
2018-10-18T21:17:28.745Z,10.80
2018-10-18T21:19:56.872Z,10.79
2018-10-18T21:22:25.218Z,10.82
2018-10-18T21:24:53.415Z,10.83
2018-10-18T21:27:21.799Z,10.77
2018-10-18T21:29:49.983Z,10.75
2018-10-18T21:32:18.247Z,10.71
2018-10-18T21:34:46.420Z,10.67
2018-10-18T21:37:14.563Z,10.57
2018-10-18T21:39:42.828Z,10.51
2018-10-18T21:42:11.074Z,10.53
2018-10-18T21:44:39.354Z,10.49
2018-10-18T21:47:07.737Z,10.49
2018-10-18T21:49:35.961Z,10.45
2018-10-18T21:52:04.233Z,10.39
2018-10-18T21:54:32.385Z,10.34
2018-10-18T21:57:00.696Z,10.33
2018-10-18T21:59:28.915Z,10.31
2018-10-18T22:01:57.074Z,10.28
2018-10-18T22:04:25.286Z,10.29
2018-10-18T22:06:53.549Z,10.26
2018-10-18T22:09:21.680Z,10.23
2018-10-18T22:11:49.854Z,10.20
2018-10-18T22:14:17.950Z,10.16
2018-10-18T22:16:46.274Z,10.12
2018-10-18T22:19:14.452Z,10.09
2018-10-18T22:21:42.659Z,10.11
2018-10-18T22:24:11.177Z,10.06
2018-10-18T22:26:39.387Z,10.05
2018-10-18T22:29:07.676Z,10.00
2018-10-18T22:31:36.121Z,9.96
2018-10-18T22:34:04.351Z,9.89
2018-10-18T22:36:32.564Z,9.87
2018-10-18T22:39:00.779Z,9.85
2018-10-18T22:41:28.844Z,9.88
2018-10-18T22:43:57.034Z,9.81
2018-10-18T22:46:25.324Z,9.84
2018-10-18T22:48:53.539Z,9.90
2018-10-18T22:51:21.653Z,9.82
2018-10-18T22:53:49.850Z,9.80
2018-10-18T22:56:17.965Z,9.77
2018-10-18T22:58:46.133Z,9.78
2018-10-18T23:01:14.361Z,9.84
2018-10-18T23:03:42.383Z,9.81
2018-10-18T23:06:10.498Z,9.77
2018-10-18T23:08:38.587Z,9.68
2018-10-18T23:11:06.663Z,9.64
2018-10-18T23:13:34.815Z,9.59
2018-10-18T23:16:02.909Z,9.63
2018-10-18T23:18:30.997Z,9.63
2018-10-18T23:20:59.234Z,9.58
2018-10-18T23:23:27.380Z,9.65
2018-10-18T23:25:55.420Z,9.63
2018-10-18T23:28:23.457Z,9.56
2018-10-18T23:30:51.536Z,9.50
2018-10-18T23:33:19.699Z,9.54
2018-10-18T23:35:47.766Z,9.47
2018-10-18T23:38:15.949Z,9.44
2018-10-18T23:40:43.964Z,9.37
2018-10-18T23:43:11.947Z,9.33
2018-10-18T23:45:39.930Z,9.25
2018-10-18T23:48:08.040Z,9.32
2018-10-18T23:50:36.099Z,9.29
2018-10-18T23:53:04.240Z,9.24
2018-10-18T23:55:32.295Z,9.21
2018-10-18T23:58:00.459Z,9.16
